createdAt,value
2023-10-27T00:00:40.239Z,20.85
2023-10-27T00:03:06.765Z,21.30
2023-10-27T00:05:33.363Z,23.08
2023-10-27T00:07:59.893Z,20.45
2023-10-27T00:10:26.856Z,21.58
2023-10-27T00:12:53.407Z,21.42
2023-10-27T00:15:20.387Z,22.20
2023-10-27T00:17:47.028Z,23.00
2023-10-27T00:20:14.144Z,22.85
2023-10-27T00:22:40.595Z,22.23
2023-10-27T00:25:07.361Z,23.08
2023-10-27T00:27:33.939Z,21.45
2023-10-27T00:30:00.365Z,22.42
2023-10-27T00:32:26.872Z,22.40
2023-10-27T00:34:53.410Z,22.05
2023-10-27T00:37:19.955Z,21.42
2023-10-27T00:39:46.526Z,23.75
2023-10-27T00:42:13.175Z,22.40
2023-10-27T00:44:39.825Z,24.10
2023-10-27T00:47:06.453Z,23.50
2023-10-27T00:49:32.990Z,23.27
2023-10-27T00:51:59.617Z,24.30
2023-10-27T00:54:27.710Z,23.23
2023-10-27T00:56:55.914Z,22.27
2023-10-27T00:59:22.450Z,22.23
2023-10-27T01:01:48.905Z,23.92
2023-10-27T01:04:15.370Z,25.05
2023-10-27T01:06:41.904Z,21.38
2023-10-27T01:09:09.117Z,25.17
2023-10-27T01:11:36.054Z,23.58
2023-10-27T01:14:02.516Z,24.50
2023-10-27T01:16:29.051Z,22.25
2023-10-27T01:18:56.559Z,23.50
2023-10-27T01:21:23.339Z,21.92
2023-10-27T01:23:49.900Z,24.17
2023-10-27T01:26:16.411Z,23.23
2023-10-27T01:28:42.885Z,26.40
2023-10-27T01:31:09.359Z,24.33
2023-10-27T01:33:35.848Z,25.40
2023-10-27T01:36:02.255Z,26.35
2023-10-27T01:38:28.761Z,26.30
2023-10-27T01:40:55.369Z,21.98
2023-10-27T01:43:22.405Z,24.00
2023-10-27T01:45:49.019Z,24.35
2023-10-27T01:48:15.466Z,23.27
2023-10-27T01:50:42.685Z,24.60
2023-10-27T01:53:09.209Z,22.80
2023-10-27T01:55:35.704Z,24.73
2023-10-27T01:58:03.494Z,24.35
2023-10-27T02:00:30.039Z,22.50
2023-10-27T02:02:56.536Z,25.55
2023-10-27T02:05:23.131Z,23.98
2023-10-27T02:07:49.605Z,24.83
2023-10-27T02:10:16.216Z,24.73
2023-10-27T02:12:43.025Z,25.45
2023-10-27T02:15:10.388Z,23.73
2023-10-27T02:17:39.050Z,23.13
2023-10-27T02:20:06.987Z,26.17
2023-10-27T02:22:33.453Z,27.98
2023-10-27T02:24:59.973Z,27.45
2023-10-27T02:27:26.741Z,24.08
2023-10-27T02:29:53.416Z,24.48
2023-10-27T02:32:19.934Z,27.25
2023-10-27T02:34:46.473Z,23.50
2023-10-27T02:37:12.937Z,25.90
2023-10-27T02:39:40.871Z,29.35
2023-10-27T02:42:07.432Z,23.58
2023-10-27T02:44:33.896Z,24.25
2023-10-27T02:47:00.498Z,28.00
2023-10-27T02:49:26.979Z,26.40
2023-10-27T02:51:53.531Z,23.60
2023-10-27T02:54:19.941Z,27.80
2023-10-27T02:56:46.344Z,26.45
2023-10-27T02:59:12.768Z,23.65
2023-10-27T03:01:39.207Z,26.15
2023-10-27T03:04:05.995Z,24.67
2023-10-27T03:06:32.564Z,24.92
2023-10-27T03:08:58.980Z,27.77
2023-10-27T03:11:25.461Z,26.45
2023-10-27T03:13:51.906Z,26.27
2023-10-27T03:16:18.377Z,24.33
2023-10-27T03:18:44.978Z,23.20
2023-10-27T03:21:11.507Z,24.67
2023-10-27T03:23:37.938Z,25.35
2023-10-27T03:26:04.429Z,25.58
2023-10-27T03:28:31.329Z,20.55
2023-10-27T03:30:58.264Z,25.15
2023-10-27T03:33:24.802Z,27.52
2023-10-27T03:35:51.431Z,25.63
2023-10-27T03:38:18.662Z,23.17
2023-10-27T03:40:46.084Z,21.35
2023-10-27T03:43:12.556Z,23.20
2023-10-27T03:45:39.046Z,21.25
2023-10-27T03:48:05.586Z,22.65
2023-10-27T03:50:32.230Z,21.55
2023-10-27T03:52:59.731Z,22.13
2023-10-27T03:55:26.217Z,23.80
2023-10-27T03:57:54.198Z,21.48
2023-10-27T04:00:21.006Z,21.98
2023-10-27T04:02:47.616Z,21.40
2023-10-27T04:05:14.340Z,20.65
2023-10-27T04:07:40.921Z,23.05
2023-10-27T04:10:07.613Z,21.05
2023-10-27T04:12:34.182Z,21.58
2023-10-27T04:15:00.814Z,18.60
2023-10-27T04:17:27.297Z,24.63
2023-10-27T04:19:53.747Z,23.08
2023-10-27T04:22:20.216Z,19.27
2023-10-27T04:24:46.683Z,20.40
2023-10-27T04:27:13.501Z,20.52
2023-10-27T04:29:39.969Z,19.73
2023-10-27T04:32:06.497Z,21.08
2023-10-27T04:34:32.933Z,19.55
2023-10-27T04:36:59.419Z,21.65
2023-10-27T04:39:25.852Z,20.52
2023-10-27T04:41:52.240Z,19.35
2023-10-27T04:44:23.613Z,22.30
2023-10-27T04:46:51.725Z,20.38
2023-10-27T04:49:18.477Z,21.33
2023-10-27T04:51:44.942Z,19.73
2023-10-27T04:54:11.407Z,18.52
2023-10-27T04:56:37.848Z,21.30
2023-10-27T04:59:04.635Z,21.10
2023-10-27T05:01:31.323Z,20.25
2023-10-27T05:03:57.933Z,19.70
2023-10-27T05:06:24.727Z,18.95
2023-10-27T05:08:51.736Z,21.13
2023-10-27T05:11:18.523Z,18.50
2023-10-27T05:13:45.224Z,19.80
2023-10-27T05:16:11.815Z,20.63
2023-10-27T05:18:38.439Z,20.58
2023-10-27T05:21:05.016Z,18.83
2023-10-27T05:23:31.590Z,20.25
2023-10-27T05:25:58.134Z,19.23
2023-10-27T05:28:25.295Z,19.10
2023-10-27T05:30:52.891Z,17.67
2023-10-27T05:33:20.631Z,18.23
2023-10-27T05:35:47.031Z,16.50
2023-10-27T05:38:13.509Z,16.95
2023-10-27T05:40:40.960Z,16.45
2023-10-27T05:43:08.052Z,15.52
2023-10-27T05:45:34.455Z,15.90
2023-10-27T05:48:00.934Z,15.85
2023-10-27T05:50:27.765Z,15.77
2023-10-27T05:52:54.239Z,15.32
2023-10-27T05:55:20.728Z,13.85
2023-10-27T05:57:47.217Z,15.48
2023-10-27T06:00:13.787Z,16.13
2023-10-27T06:02:40.268Z,15.15
2023-10-27T06:05:06.861Z,13.90
2023-10-27T06:07:33.301Z,12.65
2023-10-27T06:09:59.865Z,14.73
2023-10-27T06:12:26.375Z,13.50
2023-10-27T06:14:52.803Z,15.38
2023-10-27T06:17:19.252Z,15.35
2023-10-27T06:19:47.916Z,11.38
2023-10-27T06:22:19.894Z,13.30
2023-10-27T06:24:46.433Z,13.75
2023-10-27T06:27:12.922Z,15.30
2023-10-27T06:29:39.408Z,13.07
2023-10-27T06:32:06.794Z,11.60
2023-10-27T06:34:33.458Z,14.90
2023-10-27T06:37:01.446Z,11.15
2023-10-27T06:39:29.060Z,13.40
2023-10-27T06:41:55.494Z,12.32
2023-10-27T06:44:21.953Z,13.98
2023-10-27T06:46:48.571Z,11.95
2023-10-27T06:49:15.173Z,13.15
2023-10-27T06:51:41.714Z,12.25
2023-10-27T06:54:08.268Z,12.60
2023-10-27T06:56:34.708Z,13.05
2023-10-27T06:59:01.170Z,12.70
2023-10-27T07:01:27.660Z,11.88
2023-10-27T07:03:54.295Z,11.82
2023-10-27T07:06:20.837Z,12.65
2023-10-27T07:08:47.527Z,11.52
2023-10-27T07:11:14.333Z,12.80
2023-10-27T07:13:40.827Z,11.95
2023-10-27T07:16:07.398Z,12.70
2023-10-27T07:18:33.986Z,15.18
2023-10-27T07:21:00.528Z,13.45
2023-10-27T07:23:27.019Z,13.90
2023-10-27T07:25:54.002Z,12.40
2023-10-27T07:28:20.523Z,12.20
2023-10-27T07:30:47.453Z,13.48
2023-10-27T07:33:14.911Z,13.38
2023-10-27T07:35:41.402Z,13.25
2023-10-27T07:38:07.863Z,13.48
2023-10-27T07:40:36.048Z,13.80
2023-10-27T07:43:02.811Z,12.55
2023-10-27T07:45:29.385Z,13.50
2023-10-27T07:47:56.391Z,14.20
2023-10-27T07:50:23.058Z,14.98
2023-10-27T07:52:49.686Z,14.25
2023-10-27T07:55:16.157Z,14.25
2023-10-27T07:57:42.584Z,16.58
2023-10-27T08:00:11.913Z,14.70
2023-10-27T08:02:39.642Z,15.25
2023-10-27T08:05:07.564Z,15.43
2023-10-27T08:07:36.991Z,14.50
2023-10-27T08:10:06.708Z,14.82
2023-10-27T08:12:33.196Z,16.88
2023-10-27T08:15:06.039Z,15.88
2023-10-27T08:17:36.967Z,15.80
2023-10-27T08:20:04.555Z,18.40
2023-10-27T08:22:32.813Z,14.88
2023-10-27T08:24:59.707Z,17.52
2023-10-27T08:27:26.180Z,14.65
2023-10-27T08:29:56.983Z,15.82
2023-10-27T08:32:23.486Z,14.90
2023-10-27T08:34:50.493Z,16.88
2023-10-27T08:37:17.730Z,15.75
2023-10-27T08:39:44.593Z,14.43
2023-10-27T08:42:14.475Z,15.25
2023-10-27T08:44:44.539Z,13.60
2023-10-27T08:47:11.188Z,15.70
2023-10-27T08:49:37.921Z,17.10
2023-10-27T08:52:04.983Z,15.40
2023-10-27T08:54:32.195Z,14.57
2023-10-27T08:56:58.693Z,12.77
2023-10-27T08:59:25.249Z,13.00
2023-10-27T09:01:51.642Z,14.55
2023-10-27T09:04:22.237Z,12.55
2023-10-27T09:06:48.753Z,12.40
2023-10-27T09:09:15.973Z,11.05
2023-10-27T09:11:44.308Z,10.77
2023-10-27T09:14:24.322Z,10.85
2023-10-27T09:16:51.798Z,12.68
2023-10-27T09:19:26.258Z,10.93
2023-10-27T09:21:53.793Z,10.85
2023-10-27T09:24:27.270Z,10.38
2023-10-27T09:26:55.915Z,10.70
2023-10-27T09:29:22.479Z,10.52
2023-10-27T09:31:51.525Z,9.65
2023-10-27T09:34:22.016Z,11.30
2023-10-27T09:36:50.131Z,9.80
2023-10-27T09:39:25.753Z,10.80
2023-10-27T09:42:04.603Z,9.10
2023-10-27T09:44:48.260Z,9.32
2023-10-27T09:47:19.512Z,8.82
2023-10-27T09:49:52.791Z,7.85
2023-10-27T09:52:21.704Z,8.48
2023-10-27T09:54:48.689Z,9.73
2023-10-27T09:57:15.724Z,9.20
2023-10-27T09:59:42.398Z,8.65
2023-10-27T10:02:09.732Z,8.52
2023-10-27T10:04:51.614Z,9.60
2023-10-27T10:08:07.778Z,8.57
2023-10-27T10:10:34.678Z,9.10
2023-10-27T10:13:13.247Z,9.63
2023-10-27T10:15:44.500Z,9.88
2023-10-27T10:18:26.375Z,8.27
2023-10-27T10:20:54.786Z,8.30
2023-10-27T10:23:21.337Z,8.38
2023-10-27T10:25:57.739Z,9.70
2023-10-27T10:28:37.483Z,7.75
2023-10-27T10:31:18.178Z,8.32
2023-10-27T10:33:49.473Z,9.50
2023-10-27T10:36:16.593Z,7.90
2023-10-27T10:38:45.453Z,7.95
2023-10-27T10:41:12.078Z,8.13
2023-10-27T10:43:38.599Z,7.10
2023-10-27T10:46:11.757Z,7.22
2023-10-27T10:48:46.974Z,8.20
2023-10-27T10:51:35.361Z,6.82
2023-10-27T10:54:01.950Z,6.68
2023-10-27T10:56:28.557Z,7.88
2023-10-27T10:58:55.376Z,7.03
2023-10-27T11:01:23.377Z,7.53
2023-10-27T11:03:54.645Z,7.03
2023-10-27T11:06:26.059Z,6.90
2023-10-27T11:08:52.968Z,7.88
2023-10-27T11:11:20.331Z,7.47
2023-10-27T11:13:48.289Z,6.93
2023-10-27T11:16:16.013Z,6.90
2023-10-27T11:18:44.080Z,6.97
2023-10-27T11:21:20.288Z,6.72
2023-10-27T11:23:47.745Z,7.30
2023-10-27T11:26:15.236Z,7.13
2023-10-27T11:28:42.957Z,6.93
2023-10-27T11:31:10.143Z,7.00
2023-10-27T11:34:06.357Z,6.35
2023-10-27T11:36:43.530Z,6.97
2023-10-27T11:39:16.951Z,6.18
2023-10-27T11:41:44.583Z,6.47
2023-10-27T11:44:11.052Z,6.40
2023-10-27T11:46:50.766Z,6.07
2023-10-27T11:49:17.872Z,7.00
2023-10-27T11:51:45.360Z,6.30
2023-10-27T11:54:11.879Z,5.68
2023-10-27T11:56:41.026Z,5.43
2023-10-27T11:59:07.729Z,6.60
2023-10-27T12:01:34.295Z,6.13
2023-10-27T12:04:01.662Z,5.82
2023-10-27T12:06:28.164Z,5.72
2023-10-27T12:08:54.703Z,6.28
2023-10-27T12:11:21.732Z,6.05
2023-10-27T12:13:48.503Z,5.72
2023-10-27T12:16:15.054Z,5.80
2023-10-27T12:18:41.598Z,5.40
2023-10-27T12:21:08.025Z,5.32
2023-10-27T12:23:34.435Z,4.85
2023-10-27T12:26:01.250Z,5.72
2023-10-27T12:28:30.792Z,4.97
2023-10-27T12:30:59.739Z,5.30
2023-10-27T12:33:26.564Z,5.38
2023-10-27T12:35:53.094Z,5.60
2023-10-27T12:38:19.993Z,5.20
2023-10-27T12:40:47.650Z,5.25
2023-10-27T12:43:15.797Z,4.95
2023-10-27T12:45:43.111Z,6.35
2023-10-27T12:48:10.404Z,5.20
2023-10-27T12:50:37.551Z,5.18
2023-10-27T12:53:04.824Z,5.40
2023-10-27T12:55:33.318Z,6.43
2023-10-27T12:58:04.994Z,4.85
2023-10-27T13:00:32.791Z,4.65
2023-10-27T13:03:00.072Z,4.22
2023-10-27T13:05:28.680Z,4.25
2023-10-27T13:07:55.701Z,3.72
2023-10-27T13:10:25.649Z,3.50
2023-10-27T13:12:57.616Z,3.50
2023-10-27T13:15:24.108Z,3.40
2023-10-27T13:17:50.613Z,4.35
2023-10-27T13:20:18.560Z,3.28
2023-10-27T13:22:46.610Z,2.97
2023-10-27T13:25:13.193Z,3.47
2023-10-27T13:27:39.686Z,3.83
2023-10-27T13:30:06.774Z,3.95
2023-10-27T13:32:34.010Z,3.33
2023-10-27T13:35:01.250Z,4.18
2023-10-27T13:37:33.035Z,3.58
2023-10-27T13:39:59.668Z,3.90
2023-10-27T13:42:26.117Z,3.65
2023-10-27T13:44:52.599Z,2.95
2023-10-27T13:47:19.135Z,3.13
2023-10-27T13:49:45.791Z,3.83
2023-10-27T13:52:12.865Z,3.22
2023-10-27T13:54:39.303Z,3.25
2023-10-27T13:57:05.927Z,3.35
2023-10-27T13:59:32.352Z,3.58
2023-10-27T14:01:59.563Z,3.45
2023-10-27T14:04:26.837Z,3.65
2023-10-27T14:06:54.009Z,3.63
2023-10-27T14:09:20.823Z,3.92
2023-10-27T14:11:48.418Z,4.32
2023-10-27T14:14:21.534Z,3.88
2023-10-27T14:16:50.809Z,5.28
2023-10-27T14:19:17.350Z,4.32
2023-10-27T14:21:44.994Z,4.05
2023-10-27T14:24:11.796Z,4.05
2023-10-27T14:26:38.293Z,4.80
2023-10-27T14:29:05.688Z,4.55
2023-10-27T14:31:36.511Z,4.68
2023-10-27T14:34:04.010Z,4.97
2023-10-27T14:36:30.572Z,4.78
2023-10-27T14:38:57.269Z,4.55
2023-10-27T14:41:25.680Z,3.60
2023-10-27T14:43:54.036Z,3.47
2023-10-27T14:46:20.676Z,4.30
2023-10-27T14:48:50.672Z,4.10
2023-10-27T14:51:19.152Z,4.90
2023-10-27T14:53:45.713Z,4.20
2023-10-27T14:56:12.635Z,4.53
2023-10-27T14:58:40.093Z,3.67
2023-10-27T15:01:08.624Z,3.55
2023-10-27T15:03:38.071Z,3.97
2023-10-27T15:06:06.065Z,3.88
2023-10-27T15:08:37.167Z,3.35
2023-10-27T15:11:04.509Z,4.30
2023-10-27T15:13:32.122Z,3.53
2023-10-27T15:16:08.838Z,3.83
2023-10-27T15:18:35.540Z,3.78
2023-10-27T15:21:03.450Z,4.20
2023-10-27T15:23:30.192Z,3.63
2023-10-27T15:26:01.199Z,2.95
2023-10-27T15:28:27.867Z,3.13
2023-10-27T15:30:58.604Z,4.38
2023-10-27T15:35:59.773Z,3.45
2023-10-27T15:38:26.536Z,3.25
2023-10-27T15:40:53.585Z,7.13
2023-10-27T15:43:20.228Z,3.70
2023-10-27T15:45:59.827Z,3.75
2023-10-27T15:48:26.668Z,4.35
2023-10-27T15:50:53.490Z,3.38
2023-10-27T15:53:19.956Z,4.10
2023-10-27T15:55:46.463Z,4.30
2023-10-27T15:58:12.947Z,3.97
2023-10-27T16:00:40.184Z,4.97
2023-10-27T16:03:06.680Z,4.82
2023-10-27T16:05:39.074Z,4.55
2023-10-27T16:08:05.608Z,5.32
2023-10-27T16:10:32.072Z,4.82
2023-10-27T16:12:58.578Z,4.47
2023-10-27T16:15:25.043Z,5.60
2023-10-27T16:17:51.655Z,4.65
2023-10-27T16:20:18.142Z,5.25
2023-10-27T16:22:44.665Z,5.88
2023-10-27T16:25:11.806Z,6.57
2023-10-27T16:27:38.401Z,7.90
2023-10-27T16:30:05.747Z,6.45
2023-10-27T16:32:32.896Z,6.55
2023-10-27T16:34:59.738Z,6.53
2023-10-27T16:37:26.975Z,7.75
2023-10-27T16:39:53.404Z,8.07
2023-10-27T16:42:20.177Z,6.95
2023-10-27T16:44:46.887Z,6.85
2023-10-27T16:47:13.744Z,6.72
2023-10-27T16:49:40.319Z,6.22
2023-10-27T16:52:06.754Z,5.32
2023-10-27T16:54:33.160Z,6.22
2023-10-27T16:56:59.622Z,7.80
2023-10-27T16:59:27.795Z,7.68
2023-10-27T17:01:55.773Z,11.38
2023-10-27T17:04:22.474Z,8.95
2023-10-27T17:06:51.586Z,10.07
2023-10-27T17:09:18.073Z,15.90
2023-10-27T17:11:44.555Z,9.32
2023-10-27T17:14:11.003Z,25.45
2023-10-27T17:16:37.517Z,21.35
2023-10-27T17:19:04.012Z,9.95
2023-10-27T17:21:31.661Z,14.68
2023-10-27T17:23:59.720Z,12.13
2023-10-27T17:26:26.207Z,10.73
2023-10-27T17:28:53.308Z,15.45
2023-10-27T17:31:24.121Z,12.23
2023-10-27T17:33:56.251Z,12.75
2023-10-27T17:36:28.933Z,14.05
2023-10-27T17:38:56.154Z,10.32
2023-10-27T17:41:22.809Z,11.57
2023-10-27T17:43:49.410Z,12.23
2023-10-27T17:46:15.920Z,12.00
2023-10-27T17:48:44.204Z,15.20
2023-10-27T17:51:12.304Z,13.10
2023-10-27T17:53:41.962Z,12.65
2023-10-27T17:56:09.527Z,13.88
2023-10-27T17:58:36.706Z,11.73
2023-10-27T18:01:08.553Z,11.50
2023-10-27T18:03:35.902Z,12.27
2023-10-27T18:06:02.518Z,12.27
2023-10-27T18:08:29.654Z,12.95
2023-10-27T18:10:56.845Z,12.70
2023-10-27T18:13:23.692Z,13.10
2023-10-27T18:15:50.194Z,13.10
2023-10-27T18:18:17.534Z,13.25
2023-10-27T18:20:44.039Z,13.13
2023-10-27T18:23:11.029Z,11.25
2023-10-27T18:25:38.026Z,13.32
2023-10-27T18:28:08.024Z,11.65
2023-10-27T18:30:35.787Z,12.20
2023-10-27T18:33:02.351Z,12.98
2023-10-27T18:35:29.387Z,13.02
2023-10-27T18:37:55.878Z,11.82
2023-10-27T18:40:22.770Z,14.05
2023-10-27T18:42:50.247Z,16.20
2023-10-27T18:45:18.130Z,13.85
2023-10-27T18:47:44.942Z,14.10
2023-10-27T18:50:13.057Z,16.55
2023-10-27T18:52:39.896Z,15.77
2023-10-27T18:55:06.868Z,13.23
2023-10-27T18:57:39.479Z,13.50
2023-10-27T19:00:11.143Z,13.73
2023-10-27T19:02:41.125Z,13.90
2023-10-27T19:05:11.147Z,14.15
2023-10-27T19:07:39.160Z,11.98
2023-10-27T19:10:12.495Z,14.23
2023-10-27T19:12:44.738Z,11.88
2023-10-27T19:15:17.977Z,12.13
2023-10-27T19:17:45.579Z,13.20
2023-10-27T19:20:12.465Z,12.63
2023-10-27T19:22:39.747Z,14.13
2023-10-27T19:25:10.172Z,13.48
2023-10-27T19:27:36.958Z,11.82
2023-10-27T19:30:07.250Z,13.30
2023-10-27T19:32:37.311Z,14.27
2023-10-27T19:35:05.155Z,12.60
2023-10-27T19:37:32.067Z,12.30
2023-10-27T19:39:59.991Z,12.52
2023-10-27T19:42:26.402Z,12.13
2023-10-27T19:44:52.898Z,13.88
2023-10-27T19:47:20.592Z,11.68
2023-10-27T19:49:47.489Z,13.43
2023-10-27T19:52:14.292Z,10.70
2023-10-27T19:54:42.362Z,12.68
2023-10-27T19:57:08.811Z,12.20
2023-10-27T19:59:35.334Z,12.63
2023-10-27T20:02:01.837Z,10.98
2023-10-27T20:04:28.453Z,12.13
2023-10-27T20:06:54.956Z,11.65
2023-10-27T20:09:23.094Z,13.18
2023-10-27T20:11:51.778Z,11.57
2023-10-27T20:14:18.617Z,12.23
2023-10-27T20:16:45.177Z,13.40
2023-10-27T20:19:11.661Z,13.55
2023-10-27T20:21:38.236Z,12.27
2023-10-27T20:24:05.111Z,13.73
2023-10-27T20:26:31.579Z,13.68
2023-10-27T20:28:58.003Z,11.90
2023-10-27T20:31:24.665Z,11.40
2023-10-27T20:33:51.145Z,10.50
2023-10-27T20:36:19.103Z,12.07
2023-10-27T20:38:45.539Z,11.05
2023-10-27T20:41:11.949Z,12.48
2023-10-27T20:43:38.373Z,15.20
2023-10-27T20:46:05.038Z,13.65
2023-10-27T20:48:31.641Z,13.68
2023-10-27T20:51:01.879Z,12.82
2023-10-27T20:53:28.289Z,13.73
2023-10-27T20:55:54.789Z,13.07
2023-10-27T20:58:21.770Z,12.88
2023-10-27T21:00:48.163Z,12.55
2023-10-27T21:03:14.584Z,11.32
2023-10-27T21:05:41.087Z,11.40
2023-10-27T21:08:07.522Z,12.82
2023-10-27T21:10:34.086Z,10.50
2023-10-27T21:13:00.816Z,12.85
2023-10-27T21:15:27.409Z,11.25
2023-10-27T21:17:53.984Z,12.00
2023-10-27T21:20:21.960Z,12.13
2023-10-27T21:22:48.815Z,12.38
2023-10-27T21:25:15.389Z,11.73
2023-10-27T21:27:41.869Z,10.95
2023-10-27T21:30:08.622Z,12.32
2023-10-27T21:32:37.080Z,12.02
2023-10-27T21:35:05.419Z,12.55
2023-10-27T21:37:32.215Z,13.02
2023-10-27T21:39:58.838Z,11.52
2023-10-27T21:42:25.265Z,11.10
2023-10-27T21:44:51.725Z,12.40
2023-10-27T21:47:18.255Z,11.30
2023-10-27T21:49:47.323Z,12.50
2023-10-27T21:52:14.093Z,12.18
2023-10-27T21:54:40.575Z,10.82
2023-10-27T21:57:07.364Z,12.45
2023-10-27T21:59:39.888Z,11.48
2023-10-27T22:02:06.733Z,11.38
2023-10-27T22:04:33.353Z,11.75
2023-10-27T22:07:00.037Z,12.65
2023-10-27T22:09:29.458Z,11.52
2023-10-27T22:11:56.138Z,11.27
2023-10-27T22:14:23.500Z,11.43
2023-10-27T22:16:50.064Z,11.80
2023-10-27T22:19:16.616Z,10.85
2023-10-27T22:21:45.003Z,11.43
2023-10-27T22:24:15.576Z,11.23
2023-10-27T22:26:42.795Z,11.65
2023-10-27T22:29:09.219Z,12.63
2023-10-27T22:31:35.637Z,11.07
2023-10-27T22:34:02.142Z,12.82
2023-10-27T22:36:28.689Z,11.98
2023-10-27T22:38:55.182Z,12.05
2023-10-27T22:41:22.556Z,11.30
2023-10-27T22:43:49.161Z,11.90
2023-10-27T22:46:15.690Z,12.52
2023-10-27T22:48:42.239Z,10.40
2023-10-27T22:51:10.371Z,11.07
2023-10-27T22:53:37.280Z,12.10
2023-10-27T22:56:05.521Z,10.85
2023-10-27T22:58:35.095Z,10.43
2023-10-27T23:01:01.900Z,10.35
2023-10-27T23:03:29.026Z,12.10
2023-10-27T23:05:58.411Z,10.50
2023-10-27T23:08:24.915Z,11.73
2023-10-27T23:10:52.425Z,10.73
2023-10-27T23:13:18.909Z,11.10
2023-10-27T23:15:45.514Z,12.50
2023-10-27T23:18:12.034Z,10.70
2023-10-27T23:20:39.171Z,11.07
2023-10-27T23:23:06.569Z,10.93
2023-10-27T23:25:34.208Z,10.98
2023-10-27T23:28:00.874Z,11.23
2023-10-27T23:30:27.598Z,10.68
2023-10-27T23:32:54.101Z,10.05
2023-10-27T23:35:24.109Z,11.48
2023-10-27T23:37:51.635Z,11.82
2023-10-27T23:40:19.914Z,10.55
2023-10-27T23:42:50.099Z,11.07
2023-10-27T23:45:17.675Z,11.35
2023-10-27T23:47:44.247Z,10.63
2023-10-27T23:50:10.851Z,11.13
2023-10-27T23:52:37.783Z,9.18
2023-10-27T23:55:04.694Z,11.77
2023-10-27T23:57:31.110Z,10.90
2023-10-27T23:59:57.938Z,9.35
